Time;durP1;ratioP1;P1;durP2;ratioP2;P2;SDS_P1;SDS_P2;PMS_P1;PMS_P2;Temp;Humidity;BMP_temperature;BMP_pressure;BME280_temperature;BME280_humidity;BME280_pressure;Samples;Min_cycle;Max_cycle;Signal;HPM_P1;HPM_P2
2022/10/06 00:02:09;;;;;;;13.98;8.25;;;;;;;;;;5070912;28;20017;-61
2022/10/06 00:04:35;;;;;;;15.25;8.25;;;;;;;;;;5070353;28;20028;-61
2022/10/06 00:07:01;;;;;;;15.00;8.27;;;;;;;;;;5073017;28;20055;-65
2022/10/06 00:09:27;;;;;;;15.82;9.02;;;;;;;;;;5076057;28;20056;-62
2022/10/06 00:11:53;;;;;;;16.15;9.07;;;;;;;;;;5077752;28;20111;-64
2022/10/06 00:14:19;;;;;;;14.50;9.50;;;;;;;;;;5076013;28;20059;-63
2022/10/06 00:16:45;;;;;;;15.00;9.05;;;;;;;;;;5076720;28;20028;-62
2022/10/06 00:19:11;;;;;;;14.60;9.45;;;;;;;;;;5075946;28;20108;-63
2022/10/06 00:21:37;;;;;;;14.98;8.90;;;;;;;;;;5076168;28;20024;-59
2022/10/06 00:24:03;;;;;;;14.70;8.55;;;;;;;;;;5075149;28;20082;-62
2022/10/06 00:26:29;;;;;;;16.13;8.55;;;;;;;;;;5075845;28;20051;-62
2022/10/06 00:28:55;;;;;;;16.02;9.10;;;;;;;;;;5075534;28;20028;-59
2022/10/06 00:31:22;;;;;;;14.43;9.48;;;;;;;;;;5075513;28;20174;-63
2022/10/06 00:33:49;;;;;;;14.68;9.43;;;;;;;;;;5074594;28;20111;-61
2022/10/06 00:36:15;;;;;;;14.10;7.95;;;;;;;;;;5075288;28;20024;-61
2022/10/06 00:38:41;;;;;;;15.05;9.32;;;;;;;;;;5075417;28;20025;-58
2022/10/06 00:41:07;;;;;;;15.38;8.93;;;;;;;;;;5075028;28;20404;-59
2022/10/06 00:43:42;;;;;;;15.52;8.43;;;;;;;;;;5075078;28;20025;-61
2022/10/06 00:46:11;;;;;;;18.50;10.45;;;;;;;;;;5075085;28;20039;-61
2022/10/06 00:48:38;;;;;;;15.00;8.75;;;;;;;;;;5075052;28;20024;-61
2022/10/06 00:51:04;;;;;;;14.77;9.60;;;;;;;;;;5074670;28;20024;-61
2022/10/06 00:53:30;;;;;;;14.98;9.00;;;;;;;;;;5074391;28;20434;-61
2022/10/06 00:55:56;;;;;;;16.00;9.70;;;;;;;;;;5075024;28;20025;-57
2022/10/06 00:58:22;;;;;;;17.33;9.20;;;;;;;;;;5075058;28;20036;-57
2022/10/06 01:00:52;;;;;;;16.35;9.90;;;;;;;;;;5075138;28;20017;-60
2022/10/06 01:03:23;;;;;;;15.85;10.07;;;;;;;;;;5074743;28;20027;-59
2022/10/06 01:05:50;;;;;;;16.98;10.20;;;;;;;;;;5075063;28;20226;-64
2022/10/06 01:08:16;;;;;;;14.73;9.48;;;;;;;;;;5074985;28;20415;-62
2022/10/06 01:10:43;;;;;;;20.23;10.02;;;;;;;;;;5075106;28;20056;-62
2022/10/06 01:13:10;;;;;;;16.67;10.15;;;;;;;;;;5074833;28;20023;-60
2022/10/06 01:15:38;;;;;;;16.05;10.20;;;;;;;;;;5075129;28;20028;-63
2022/10/06 01:18:07;;;;;;;15.77;10.07;;;;;;;;;;5074684;28;20027;-58
2022/10/06 01:20:35;;;;;;;15.77;9.90;;;;;;;;;;5072996;28;20028;-62
2022/10/06 01:23:04;;;;;;;18.05;10.38;;;;;;;;;;5074240;28;20020;-63
2022/10/06 01:25:31;;;;;;;16.35;10.27;;;;;;;;;;5073102;28;20454;-63
2022/10/06 01:27:58;;;;;;;16.45;10.45;;;;;;;;;;5073629;28;20094;-62
2022/10/06 01:30:32;;;;;;;19.45;10.88;;;;;;;;;;5074406;28;20056;-62
2022/10/06 01:32:58;;;;;;;21.58;11.48;;;;;;;;;;5074380;28;20035;-61
2022/10/06 01:35:24;;;;;;;15.05;9.77;;;;;;;;;;5074079;28;20021;-60
2022/10/06 01:37:50;;;;;;;15.30;9.63;;;;;;;;;;5074208;28;20123;-60
2022/10/06 01:40:17;;;;;;;29.30;10.55;;;;;;;;;;5074116;28;20054;-62
2022/10/06 01:42:43;;;;;;;16.67;10.80;;;;;;;;;;5074273;28;20016;-56
2022/10/06 01:45:10;;;;;;;17.42;10.32;;;;;;;;;;5073921;28;20035;-59
2022/10/06 01:47:36;;;;;;;16.23;10.27;;;;;;;;;;5073945;28;20032;-61
2022/10/06 01:50:03;;;;;;;16.27;10.15;;;;;;;;;;5073836;28;20048;-62
2022/10/06 01:52:29;;;;;;;18.27;9.88;;;;;;;;;;5074209;28;20123;-61
2022/10/06 01:54:55;;;;;;;16.80;9.85;;;;;;;;;;5073798;28;20634;-62
2022/10/06 01:57:21;;;;;;;16.98;9.15;;;;;;;;;;5073445;28;20032;-58
2022/10/06 01:59:47;;;;;;;15.32;8.90;;;;;;;;;;5073564;28;20025;-62
2022/10/06 02:02:13;;;;;;;16.42;9.30;;;;;;;;;;5072598;28;20024;-60
2022/10/06 02:04:39;;;;;;;17.73;8.93;;;;;;;;;;5073469;28;20029;-64
2022/10/06 02:07:06;;;;;;;15.85;9.13;;;;;;;;;;5073536;28;20016;-60
2022/10/06 02:09:32;;;;;;;16.15;9.40;;;;;;;;;;5073619;28;20032;-59
2022/10/06 02:11:58;;;;;;;15.27;9.88;;;;;;;;;;5073267;28;20029;-62
2022/10/06 02:14:24;;;;;;;18.45;9.52;;;;;;;;;;5072694;28;20433;-62
2022/10/06 02:16:50;;;;;;;17.65;9.55;;;;;;;;;;5073211;28;20043;-61
2022/10/06 02:19:16;;;;;;;16.25;8.23;;;;;;;;;;5073050;28;20419;-61
2022/10/06 02:21:42;;;;;;;17.52;8.52;;;;;;;;;;5072011;28;20032;-59
2022/10/06 02:24:08;;;;;;;20.20;9.60;;;;;;;;;;5072428;28;20037;-62
2022/10/06 02:26:34;;;;;;;18.27;10.27;;;;;;;;;;5072850;28;20090;-61
2022/10/06 02:29:00;;;;;;;15.18;9.00;;;;;;;;;;5072411;28;20020;-62
2022/10/06 02:31:26;;;;;;;20.13;11.07;;;;;;;;;;5071823;28;20013;-59
2022/10/06 02:33:52;;;;;;;19.83;10.20;;;;;;;;;;5072641;28;20013;-60
2022/10/06 02:36:18;;;;;;;18.25;10.10;;;;;;;;;;5072148;28;20020;-62
2022/10/06 02:38:44;;;;;;;17.23;9.90;;;;;;;;;;5071597;28;20024;-61
2022/10/06 02:41:10;;;;;;;21.52;10.48;;;;;;;;;;5072443;28;20479;-62
2022/10/06 02:43:36;;;;;;;17.58;9.90;;;;;;;;;;5072082;28;20399;-59
2022/10/06 02:46:04;;;;;;;18.65;9.60;;;;;;;;;;5072071;28;20025;-61
2022/10/06 02:48:30;;;;;;;19.02;9.52;;;;;;;;;;5069697;28;20048;-61
2022/10/06 02:50:57;;;;;;;19.77;10.15;;;;;;;;;;5072411;28;20481;-60
2022/10/06 02:53:24;;;;;;;19.42;9.48;;;;;;;;;;5072319;28;21490;-60
2022/10/06 02:55:51;;;;;;;17.83;10.68;;;;;;;;;;5069700;28;20016;-60
2022/10/06 02:58:17;;;;;;;20.30;11.25;;;;;;;;;;5071782;28;20020;-59
2022/10/06 03:00:43;;;;;;;16.35;9.45;;;;;;;;;;5072246;28;20395;-59
2022/10/06 03:03:08;;;;;;;18.88;9.70;;;;;;;;;;5071041;28;20095;-58
2022/10/06 03:05:34;;;;;;;19.45;9.77;;;;;;;;;;5072405;28;20016;-62
2022/10/06 03:08:00;;;;;;;19.75;10.88;;;;;;;;;;5072378;28;20396;-61
2022/10/06 03:10:26;;;;;;;20.15;10.63;;;;;;;;;;5073175;28;20062;-62
2022/10/06 03:12:52;;;;;;;18.23;9.98;;;;;;;;;;5073278;28;20031;-62
2022/10/06 03:15:20;;;;;;;19.73;9.95;;;;;;;;;;5081966;28;20028;-64
2022/10/06 03:17:48;;;;;;;19.25;10.52;;;;;;;;;;5077137;28;20035;-61
2022/10/06 03:20:14;;;;;;;;;;;;;;;;;;5073343;28;20036;-62
2022/10/06 03:22:40;;;;;;;20.10;10.70;;;;;;;;;;5071224;28;20294;-60
2022/10/06 03:25:07;;;;;;;19.23;10.05;;;;;;;;;;5072545;28;20024;-60
2022/10/06 03:27:33;;;;;;;17.73;10.00;;;;;;;;;;5072647;28;20073;-60
2022/10/06 03:29:59;;;;;;;18.48;10.75;;;;;;;;;;5070661;28;20020;-61
2022/10/06 03:32:26;;;;;;;21.52;11.70;;;;;;;;;;5072379;28;20076;-62
2022/10/06 03:34:52;;;;;;;23.48;10.30;;;;;;;;;;5071979;28;20048;-62
2022/10/06 03:37:18;;;;;;;19.35;9.60;;;;;;;;;;5072164;28;20466;-60
2022/10/06 03:39:44;;;;;;;18.52;9.82;;;;;;;;;;5070743;28;20040;-63
2022/10/06 03:42:10;;;;;;;18.08;9.80;;;;;;;;;;5070365;28;20500;-60
2022/10/06 03:44:36;;;;;;;20.30;10.20;;;;;;;;;;5076048;28;20422;-62
2022/10/06 03:47:02;;;;;;;19.27;10.20;;;;;;;;;;5076319;28;20468;-60
2022/10/06 03:49:28;;;;;;;20.65;9.93;;;;;;;;;;5076308;28;20111;-60
2022/10/06 03:51:54;;;;;;;21.15;10.45;;;;;;;;;;5075167;28;20447;-63
2022/10/06 03:54:20;;;;;;;22.23;10.55;;;;;;;;;;5075861;28;20025;-61
2022/10/06 03:56:46;;;;;;;22.08;10.60;;;;;;;;;;5076256;28;20024;-58
2022/10/06 03:59:16;;;;;;;21.45;10.20;;;;;;;;;;5074910;28;20439;-60
2022/10/06 04:01:43;;;;;;;20.88;11.38;;;;;;;;;;5076219;28;20021;-60
2022/10/06 04:04:09;;;;;;;19.17;9.90;;;;;;;;;;5075762;28;20029;-60
2022/10/06 04:06:36;;;;;;;21.67;10.55;;;;;;;;;;5075911;28;20455;-58
2022/10/06 04:09:04;;;;;;;19.73;10.75;;;;;;;;;;5075720;28;20063;-63
2022/10/06 04:11:31;;;;;;;17.70;10.68;;;;;;;;;;5075643;28;20121;-58
2022/10/06 04:14:01;;;;;;;19.70;10.98;;;;;;;;;;5075597;28;20021;-62
2022/10/06 04:16:31;;;;;;;18.95;9.55;;;;;;;;;;5075716;28;20021;-60
2022/10/06 04:18:59;;;;;;;22.35;10.55;;;;;;;;;;5075973;28;20020;-58
2022/10/06 04:21:25;;;;;;;19.60;10.65;;;;;;;;;;5075968;28;20618;-59
2022/10/06 04:23:52;;;;;;;22.58;10.82;;;;;;;;;;5075396;28;20081;-60
2022/10/06 04:26:19;;;;;;;19.95;10.10;;;;;;;;;;5075109;28;20040;-58
2022/10/06 04:28:45;;;;;;;20.17;10.15;;;;;;;;;;5073878;28;20020;-62
2022/10/06 04:31:15;;;;;;;19.50;10.50;;;;;;;;;;5075058;28;20032;-63
2022/10/06 04:33:42;;;;;;;17.13;10.07;;;;;;;;;;5073832;28;20093;-63
2022/10/06 04:36:10;;;;;;;22.65;11.10;;;;;;;;;;5076059;28;20040;-58
2022/10/06 04:38:36;;;;;;;20.17;10.68;;;;;;;;;;5073784;28;20032;-61
2022/10/06 04:41:05;;;;;;;23.08;10.82;;;;;;;;;;5075249;28;20028;-58
2022/10/06 04:43:31;;;;;;;19.60;10.32;;;;;;;;;;5075293;28;20016;-62
2022/10/06 04:45:58;;;;;;;19.58;11.55;;;;;;;;;;5078211;28;20070;-62
2022/10/06 04:48:25;;;;;;;19.63;10.48;;;;;;;;;;5080237;28;20024;-62
2022/10/06 04:50:57;;;;;;;22.05;10.80;;;;;;;;;;5075597;28;20020;-59
2022/10/06 04:53:23;;;;;;;20.00;10.57;;;;;;;;;;5074937;28;20025;-58
2022/10/06 04:55:59;;;;;;;21.98;10.80;;;;;;;;;;5075622;28;20027;-63
2022/10/06 04:58:26;;;;;;;20.52;11.05;;;;;;;;;;5078155;28;20551;-63
2022/10/06 05:00:52;;;;;;;20.40;10.35;;;;;;;;;;5075199;28;20029;-61
2022/10/06 05:03:18;;;;;;;20.90;10.45;;;;;;;;;;5077381;28;20028;-64
2022/10/06 05:05:44;;;;;;;24.02;11.85;;;;;;;;;;5075868;28;20107;-63
2022/10/06 05:08:10;;;;;;;19.25;10.00;;;;;;;;;;5075256;28;20123;-63
2022/10/06 05:10:36;;;;;;;18.88;10.82;;;;;;;;;;5075496;28;20029;-62
2022/10/06 05:13:04;;;;;;;19.75;10.70;;;;;;;;;;5074596;28;20095;-58
2022/10/06 05:15:30;;;;;;;20.90;10.73;;;;;;;;;;5075246;28;20016;-55
2022/10/06 05:17:56;;;;;;;22.20;11.02;;;;;;;;;;5074828;28;20089;-58
2022/10/06 05:20:22;;;;;;;23.02;13.15;;;;;;;;;;5074385;28;20024;-60
2022/10/06 05:22:48;;;;;;;22.75;11.07;;;;;;;;;;5073869;28;20027;-61
2022/10/06 05:25:15;;;;;;;20.98;10.75;;;;;;;;;;5074144;28;20056;-60
2022/10/06 05:27:41;;;;;;;19.33;11.45;;;;;;;;;;5074375;28;20391;-57
2022/10/06 05:30:07;;;;;;;20.25;10.82;;;;;;;;;;5073580;28;20023;-62
2022/10/06 05:32:33;;;;;;;21.60;10.77;;;;;;;;;;5074153;28;20031;-62
2022/10/06 05:34:59;;;;;;;24.35;10.82;;;;;;;;;;5074030;28;20095;-62
2022/10/06 05:37:25;;;;;;;20.00;11.40;;;;;;;;;;5088886;22;20064;-59
2022/10/06 05:39:51;;;;;;;22.40;11.00;;;;;;;;;;5071895;28;20094;-57
2022/10/06 05:42:17;;;;;;;19.90;11.38;;;;;;;;;;5071966;28;20032;-59
2022/10/06 05:44:43;;;;;;;29.38;12.07;;;;;;;;;;5071373;28;20024;-61
2022/10/06 05:47:09;;;;;;;20.52;11.15;;;;;;;;;;5073165;28;20127;-58
2022/10/06 05:49:35;;;;;;;24.15;11.85;;;;;;;;;;5072996;28;20107;-60
2022/10/06 05:52:01;;;;;;;23.33;11.18;;;;;;;;;;5071674;28;20107;-62
2022/10/06 05:54:27;;;;;;;22.17;12.38;;;;;;;;;;5072233;28;20059;-60
2022/10/06 05:56:53;;;;;;;23.80;11.60;;;;;;;;;;5072860;28;20457;-59
2022/10/06 05:59:19;;;;;;;19.67;11.77;;;;;;;;;;5071268;28;20082;-57
2022/10/06 06:01:45;;;;;;;21.33;12.10;;;;;;;;;;5072697;28;20392;-61
2022/10/06 06:04:12;;;;;;;21.08;11.77;;;;;;;;;;5072518;28;20392;-57
2022/10/06 06:06:42;;;;;;;20.10;11.38;;;;;;;;;;5072438;28;20128;-55
2022/10/06 06:09:08;;;;;;;17.85;11.95;;;;;;;;;;5072278;28;20038;-60
2022/10/06 06:11:35;;;;;;;24.23;11.98;;;;;;;;;;5072608;28;20024;-62
2022/10/06 06:14:02;;;;;;;20.65;12.25;;;;;;;;;;5072185;28;20028;-58
2022/10/06 06:16:32;;;;;;;21.60;11.20;;;;;;;;;;5071350;28;20483;-60
2022/10/06 06:18:59;;;;;;;20.45;11.57;;;;;;;;;;5072384;28;20032;-56
2022/10/06 06:21:25;;;;;;;21.63;11.82;;;;;;;;;;5072366;28;20035;-56
2022/10/06 06:23:51;;;;;;;21.52;11.05;;;;;;;;;;5071836;28;20033;-57
2022/10/06 06:26:22;;;;;;;23.52;12.68;;;;;;;;;;5071849;28;20037;-59
2022/10/06 06:28:49;;;;;;;22.77;12.10;;;;;;;;;;5072130;28;20024;-59
2022/10/06 06:31:17;;;;;;;18.67;11.25;;;;;;;;;;5071175;28;20036;-62
2022/10/06 06:33:44;;;;;;;19.00;10.20;;;;;;;;;;5071161;28;20025;-63
2022/10/06 06:36:14;;;;;;;21.10;12.07;;;;;;;;;;5070993;28;20028;-60
2022/10/06 06:38:40;;;;;;;21.40;11.43;;;;;;;;;;5072166;28;20032;-62
2022/10/06 06:41:17;;;;;;;24.50;11.05;;;;;;;;;;5071913;28;20027;-62
2022/10/06 06:43:44;;;;;;;21.42;10.68;;;;;;;;;;5071452;28;20021;-58
2022/10/06 06:46:10;;;;;;;20.58;10.30;;;;;;;;;;5072243;28;20024;-63
2022/10/06 06:48:36;;;;;;;21.15;11.00;;;;;;;;;;5070181;28;20027;-62
2022/10/06 06:51:03;;;;;;;20.27;10.18;;;;;;;;;;5070802;28;20491;-61
2022/10/06 06:53:29;;;;;;;17.30;10.50;;;;;;;;;;5070539;28;20116;-62
2022/10/06 06:55:55;;;;;;;21.60;11.00;;;;;;;;;;5071623;28;20023;-60
2022/10/06 06:58:21;;;;;;;21.67;11.10;;;;;;;;;;5071809;28;20025;-61
2022/10/06 07:00:47;;;;;;;23.75;10.70;;;;;;;;;;5071878;28;20506;-62
2022/10/06 07:03:15;;;;;;;19.30;11.10;;;;;;;;;;5071522;28;20039;-63
2022/10/06 07:05:41;;;;;;;21.27;11.18;;;;;;;;;;5071604;28;20027;-62
2022/10/06 07:08:09;;;;;;;20.75;10.70;;;;;;;;;;5071345;28;20028;-62
2022/10/06 07:10:36;;;;;;;21.02;11.40;;;;;;;;;;5071743;28;20499;-62
2022/10/06 07:13:02;;;;;;;21.00;11.80;;;;;;;;;;5071364;28;20020;-58
2022/10/06 07:26:31;;;;;;;21.95;9.95;;;;;;;;;;5071330;28;20122;-61
2022/10/06 07:29:00;;;;;;;23.08;11.85;;;;;;;;;;5071593;28;20154;-62
2022/10/06 07:31:30;;;;;;;23.65;11.48;;;;;;;;;;5071907;28;20027;-63
2022/10/06 07:33:56;;;;;;;31.50;12.80;;;;;;;;;;5071222;28;20048;-61
2022/10/06 07:36:22;;;;;;;23.45;11.05;;;;;;;;;;5071401;28;20359;-61
2022/10/06 07:38:48;;;;;;;23.65;11.13;;;;;;;;;;5070201;28;20395;-62
2022/10/06 07:41:14;;;;;;;21.38;10.88;;;;;;;;;;5071301;28;20103;-61
2022/10/06 07:43:40;;;;;;;23.33;11.65;;;;;;;;;;5070899;28;20035;-61
2022/10/06 07:46:14;;;;;;;33.47;11.85;;;;;;;;;;5071049;28;20390;-58
2022/10/06 07:48:40;;;;;;;21.67;10.45;;;;;;;;;;5070881;28;20060;-61
2022/10/06 07:51:16;;;;;;;20.65;10.77;;;;;;;;;;5070188;28;20024;-62
2022/10/06 07:53:52;;;;;;;23.83;11.75;;;;;;;;;;5071672;28;20025;-61
2022/10/06 07:56:19;;;;;;;22.65;10.73;;;;;;;;;;5071654;28;20024;-61
2022/10/06 07:58:45;;;;;;;26.67;12.55;;;;;;;;;;5072046;28;20020;-62
2022/10/06 08:01:12;;;;;;;20.58;9.63;;;;;;;;;;5070658;28;20391;-61
2022/10/06 08:03:38;;;;;;;18.85;10.07;;;;;;;;;;5070948;28;20028;-61
2022/10/06 08:06:05;;;;;;;25.55;11.52;;;;;;;;;;5069161;28;20066;-62
2022/10/06 08:08:32;;;;;;;19.65;10.02;;;;;;;;;;5069697;28;20029;-61
2022/10/06 08:10:58;;;;;;;21.02;11.00;;;;;;;;;;5070006;28;20035;-62
2022/10/06 08:13:25;;;;;;;25.15;10.73;;;;;;;;;;5070768;28;20384;-62
2022/10/06 08:15:53;;;;;;;22.58;10.80;;;;;;;;;;5071039;28;20016;-62
2022/10/06 08:18:20;;;;;;;23.60;11.10;;;;;;;;;;5069293;28;20024;-61
2022/10/06 08:20:46;;;;;;;24.02;10.35;;;;;;;;;;5069734;28;20119;-63
2022/10/06 08:23:12;;;;;;;20.88;10.02;;;;;;;;;;5069569;28;20480;-61
2022/10/06 08:25:42;;;;;;;22.25;10.70;;;;;;;;;;5069755;28;20376;-62
2022/10/06 08:28:11;;;;;;;21.80;10.85;;;;;;;;;;5070763;28;20056;-59
2022/10/06 08:30:37;;;;;;;23.63;10.48;;;;;;;;;;5073191;28;20102;-61
2022/10/06 08:33:04;;;;;;;22.92;10.88;;;;;;;;;;5074020;28;20024;-60
2022/10/06 08:35:31;;;;;;;29.98;10.50;;;;;;;;;;5074456;28;20023;-63
2022/10/06 08:37:57;;;;;;;23.02;10.40;;;;;;;;;;5074455;28;20035;-59
2022/10/06 08:40:23;;;;;;;22.35;10.88;;;;;;;;;;5074447;28;20029;-61
2022/10/06 08:42:50;;;;;;;21.50;11.80;;;;;;;;;;5074480;28;20440;-60
2022/10/06 08:45:22;;;;;;;22.50;10.48;;;;;;;;;;5074112;28;20032;-62
2022/10/06 08:48:09;;;;;;;21.02;10.35;;;;;;;;;;5073656;28;20786;-61
2022/10/06 08:50:37;;;;;;;24.25;10.70;;;;;;;;;;5073650;28;20499;-61
2022/10/06 08:53:03;;;;;;;;;;;;;;;;;;5073113;28;20016;-61
2022/10/06 08:55:38;;;;;;;28.10;10.77;;;;;;;;;;5074145;28;19915;-61
2022/10/06 08:58:27;;;;;;;32.17;12.57;;;;;;;;;;5074134;28;20491;-61
2022/10/06 09:00:55;;;;;;;23.38;10.32;;;;;;;;;;5074275;28;20055;-59
2022/10/06 09:03:23;;;;;;;23.53;9.63;;;;;;;;;;5072653;28;20029;-60
2022/10/06 09:05:55;;;;;;;25.35;9.68;;;;;;;;;;5074111;28;20020;-62
2022/10/06 09:08:23;;;;;;;23.27;9.80;;;;;;;;;;5073886;28;20024;-62
2022/10/06 09:10:49;;;;;;;19.33;10.50;;;;;;;;;;5074187;28;20089;-61
2022/10/06 09:13:27;;;;;;;21.40;9.70;;;;;;;;;;5074019;28;20786;-56
2022/10/06 09:15:55;;;;;;;19.60;9.88;;;;;;;;;;5072754;28;20077;-54
2022/10/06 09:18:21;;;;;;;28.67;10.53;;;;;;;;;;5072035;28;20040;-57
2022/10/06 09:21:03;;;;;;;24.38;9.93;;;;;;;;;;5073679;28;20123;-58
2022/10/06 09:23:46;;;;;;;22.00;9.55;;;;;;;;;;5071904;28;20059;-63
2022/10/06 09:26:13;;;;;;;24.05;12.60;;;;;;;;;;5073565;28;20021;-61
2022/10/06 09:28:39;;;;;;;19.80;10.45;;;;;;;;;;5071875;28;20029;-60
2022/10/06 09:31:25;;;;;;;21.02;11.70;;;;;;;;;;5073427;28;20373;-60
2022/10/06 09:33:58;;;;;;;23.27;10.60;;;;;;;;;;5072046;28;20016;-59
2022/10/06 09:36:24;;;;;;;22.92;10.65;;;;;;;;;;5072228;28;20028;-58
2022/10/06 09:38:54;;;;;;;23.60;9.98;;;;;;;;;;5073087;28;20028;-60
2022/10/06 09:41:33;;;;;;;22.90;11.07;;;;;;;;;;5072906;28;20031;-61
2022/10/06 09:44:02;;;;;;;19.75;9.88;;;;;;;;;;5071639;28;20029;-61
2022/10/06 09:46:28;;;;;;;;;;;;;;;;;;5073820;28;20020;-61
2022/10/06 09:49:10;;;;;;;22.27;9.40;;;;;;;;;;5071299;28;20413;-61
2022/10/06 09:51:37;;;;;;;25.90;12.70;;;;;;;;;;5073199;28;20032;-62
2022/10/06 09:54:13;;;;;;;24.90;12.10;;;;;;;;;;5072725;28;20024;-61
2022/10/06 09:56:43;;;;;;;23.42;9.68;;;;;;;;;;5072995;28;20031;-62
2022/10/06 09:59:20;;;;;;;27.15;10.85;;;;;;;;;;5071545;28;20025;-61
2022/10/06 10:01:54;;;;;;;19.67;9.93;;;;;;;;;;5071731;28;20047;-63
2022/10/06 10:04:29;;;;;;;23.98;9.60;;;;;;;;;;5072535;28;20075;-64
2022/10/06 10:07:12;;;;;;;24.15;9.48;;;;;;;;;;5072499;28;20051;-68
2022/10/06 10:09:40;;;;;;;21.35;9.73;;;;;;;;;;5071221;28;20034;-63
2022/10/06 10:12:28;;;;;;;20.97;9.60;;;;;;;;;;5072432;28;20031;-64
2022/10/06 10:15:00;;;;;;;23.60;10.40;;;;;;;;;;5071199;28;20044;-64
2022/10/06 10:17:32;;;;;;;21.73;10.38;;;;;;;;;;5072177;28;20025;-64
2022/10/06 10:19:59;;;;;;;18.92;10.40;;;;;;;;;;5052462;28;20082;-64
2022/10/06 10:22:31;;;;;;;18.75;9.85;;;;;;;;;;5052212;28;20436;-64
2022/10/06 10:25:00;;;;;;;22.73;10.57;;;;;;;;;;5051652;28;20108;-64
2022/10/06 10:27:31;;;;;;;24.50;9.77;;;;;;;;;;5050694;28;20028;-64
2022/10/06 10:30:15;;;;;;;21.35;10.93;;;;;;;;;;5052632;28;20021;-67
2022/10/06 10:33:02;;;;;;;26.50;10.43;;;;;;;;;;5052492;28;20050;-67
2022/10/06 10:35:40;;;;;;;17.67;9.05;;;;;;;;;;5050542;28;20043;-68
2022/10/06 10:38:07;;;;;;;;;;;;;;;;;;5052372;28;20028;-66
2022/10/06 10:40:33;;;;;;;17.40;9.48;;;;;;;;;;5051939;28;19991;-66
2022/10/06 10:43:19;;;;;;;20.05;9.80;;;;;;;;;;5050086;28;20106;-66
2022/10/06 10:45:47;;;;;;;20.85;10.18;;;;;;;;;;5050973;28;20480;-69
2022/10/06 10:48:16;;;;;;;18.73;10.07;;;;;;;;;;5063888;28;20105;-66
2022/10/06 10:50:47;;;;;;;19.23;9.98;;;;;;;;;;5069968;28;20036;-67
2022/10/06 10:53:20;;;;;;;22.65;10.73;;;;;;;;;;5069821;28;20028;-66
2022/10/06 10:55:47;;;;;;;17.55;9.38;;;;;;;;;;5071719;28;20031;-67
2022/10/06 10:58:20;;;;;;;17.08;9.65;;;;;;;;;;5070135;28;20507;-67
2022/10/06 11:00:49;;;;;;;22.88;10.70;;;;;;;;;;5071661;28;20036;-65
2022/10/06 11:03:16;;;;;;;21.50;10.20;;;;;;;;;;5071837;28;20024;-68
2022/10/06 11:05:44;;;;;;;17.95;9.20;;;;;;;;;;5071631;28;20108;-68
2022/10/06 11:08:24;;;;;;;22.13;10.27;;;;;;;;;;5069940;28;20114;-66
2022/10/06 11:10:53;;;;;;;19.25;10.07;;;;;;;;;;5071457;28;20021;-65
2022/10/06 11:13:19;;;;;;;;;;;;;;;;;;5072015;28;20074;-67
2022/10/06 11:15:54;;;;;;;18.90;10.90;;;;;;;;;;5071579;28;19908;-65
2022/10/06 11:18:40;;;;;;;21.00;10.50;;;;;;;;;;5071242;28;20024;-66
2022/10/06 11:21:19;;;;;;;18.30;11.50;;;;;;;;;;5072304;28;20021;-67
2022/10/06 11:24:03;;;;;;;22.25;11.52;;;;;;;;;;5072539;28;20395;-66
2022/10/06 11:26:35;;;;;;;17.65;10.77;;;;;;;;;;5070961;28;20021;-67
2022/10/06 11:29:14;;;;;;;18.52;10.90;;;;;;;;;;5071329;28;20456;-67
2022/10/06 11:31:45;;;;;;;17.48;10.50;;;;;;;;;;5073103;28;20028;-67
2022/10/06 11:34:11;;;;;;;20.50;10.60;;;;;;;;;;5071883;28;20032;-68
2022/10/06 11:36:56;;;;;;;18.98;11.05;;;;;;;;;;5070787;28;20020;-67
2022/10/06 11:39:31;;;;;;;19.58;11.13;;;;;;;;;;5056329;22;20057;-56
2022/10/06 11:42:06;;;;;;;18.25;10.90;;;;;;;;;;5013609;28;20071;-58
2022/10/06 11:44:36;;;;;;;18.83;11.00;;;;;;;;;;5031107;28;20044;-57
2022/10/06 11:47:05;;;;;;;17.88;10.57;;;;;;;;;;5031223;28;20036;-56
2022/10/06 11:49:31;;;;;;;;;;;;;;;;;;5032481;28;20025;-56
2022/10/06 11:52:06;;;;;;;20.95;11.13;;;;;;;;;;5031455;28;19905;-56
2022/10/06 11:54:44;;;;;;;17.27;10.30;;;;;;;;;;5031352;28;20041;-55
2022/10/06 11:57:22;;;;;;;18.35;10.70;;;;;;;;;;5031544;28;20022;-56
2022/10/06 11:59:50;;;;;;;20.05;11.10;;;;;;;;;;5031448;28;20106;-56
2022/10/06 12:02:34;;;;;;;19.40;11.00;;;;;;;;;;5031335;28;20033;-56
2022/10/06 12:05:13;;;;;;;18.92;10.77;;;;;;;;;;5015961;28;20092;-53
2022/10/06 12:07:54;;;;;;;19.27;10.77;;;;;;;;;;5035083;28;20029;-54
2022/10/06 12:10:30;;;;;;;18.65;10.55;;;;;;;;;;5035332;28;20029;-58
2022/10/06 12:12:59;;;;;;;22.92;10.10;;;;;;;;;;5035024;28;20457;-50
2022/10/06 12:15:36;;;;;;;22.20;10.20;;;;;;;;;;5034787;28;20025;-53
2022/10/06 12:18:21;;;;;;;18.95;10.30;;;;;;;;;;5015099;28;20038;-51
2022/10/06 12:21:08;;;;;;;20.33;10.20;;;;;;;;;;5015213;28;20029;-50
2022/10/06 12:23:46;;;;;;;18.67;10.43;;;;;;;;;;5014766;28;20018;-53
2022/10/06 12:26:26;;;;;;;19.75;10.88;;;;;;;;;;5014787;28;20099;-50
2022/10/06 12:28:54;;;;;;;17.63;9.95;;;;;;;;;;5014501;28;20500;-54
2022/10/06 12:31:28;;;;;;;17.20;10.52;;;;;;;;;;4997217;28;20093;-55
2022/10/06 12:33:54;;;;;;;18.92;10.15;;;;;;;;;;5014886;28;20109;-52
2022/10/06 12:36:27;;;;;;;19.52;10.95;;;;;;;;;;4996891;28;20026;-53
2022/10/06 12:39:03;;;;;;;20.35;11.02;;;;;;;;;;5014317;28;20042;-53
2022/10/06 12:41:49;;;;;;;23.08;11.73;;;;;;;;;;5014300;28;20034;-49
2022/10/06 12:44:21;;;;;;;19.15;10.90;;;;;;;;;;5014449;28;20493;-55
2022/10/06 12:46:48;;;;;;;18.05;10.70;;;;;;;;;;5023334;28;20378;-51
2022/10/06 12:49:14;;;;;;;17.70;10.50;;;;;;;;;;5033328;28;20124;-50
2022/10/06 12:51:42;;;;;;;20.65;11.60;;;;;;;;;;5015635;28;20108;-51
2022/10/06 12:54:21;;;;;;;18.35;10.68;;;;;;;;;;5033700;28;20067;-51
2022/10/06 12:56:58;;;;;;;16.25;9.93;;;;;;;;;;5033619;28;20026;-51
2022/10/06 12:59:33;;;;;;;17.90;10.50;;;;;;;;;;5033760;28;20523;-56
2022/10/06 13:02:01;;;;;;;26.25;11.43;;;;;;;;;;5033726;28;20060;-53
2022/10/06 13:04:33;;;;;;;18.80;10.52;;;;;;;;;;5015534;28;20025;-54
2022/10/06 13:06:59;;;;;;;20.50;10.95;;;;;;;;;;5033389;28;20029;-52
2022/10/06 13:09:25;;;;;;;18.20;10.63;;;;;;;;;;5033582;28;20029;-51
2022/10/06 13:11:51;;;;;;;19.52;11.32;;;;;;;;;;5033459;28;20025;-51
2022/10/06 13:14:17;;;;;;;19.38;10.77;;;;;;;;;;5033454;28;20033;-55
2022/10/06 13:16:46;;;;;;;19.60;10.35;;;;;;;;;;5034689;28;20036;-54
2022/10/06 13:19:16;;;;;;;18.50;10.05;;;;;;;;;;5016054;28;20386;-54
2022/10/06 13:21:42;;;;;;;20.38;11.57;;;;;;;;;;5032820;28;20473;-55
2022/10/06 13:24:12;;;;;;;19.30;10.38;;;;;;;;;;5015080;28;20025;-52
2022/10/06 13:26:39;;;;;;;19.33;11.07;;;;;;;;;;5033259;28;20032;-51
2022/10/06 13:29:15;;;;;;;18.75;10.70;;;;;;;;;;5033541;28;20079;-51
2022/10/06 13:31:45;;;;;;;18.92;10.15;;;;;;;;;;5033585;28;20033;-51
2022/10/06 13:34:16;;;;;;;22.27;10.95;;;;;;;;;;5033529;28;20045;-60
2022/10/06 13:36:43;;;;;;;19.40;11.18;;;;;;;;;;5033583;28;20036;-59
2022/10/06 13:39:13;;;;;;;19.70;11.20;;;;;;;;;;5033326;28;20037;-59
2022/10/06 13:41:49;;;;;;;20.92;11.40;;;;;;;;;;5033628;28;20047;-59
2022/10/06 13:44:35;;;;;;;18.40;10.85;;;;;;;;;;5033313;28;20025;-62
2022/10/06 13:47:06;;;;;;;19.83;11.20;;;;;;;;;;5033487;28;20033;-61
2022/10/06 13:49:35;;;;;;;19.95;11.38;;;;;;;;;;5037358;28;20396;-62
2022/10/06 13:52:14;;;;;;;22.50;11.70;;;;;;;;;;5033319;28;20053;-62
2022/10/06 13:54:52;;;;;;;20.25;11.70;;;;;;;;;;5014793;28;20033;-62
2022/10/06 13:57:37;;;;;;;21.40;12.27;;;;;;;;;;5033260;28;20022;-60
2022/10/06 14:00:04;;;;;;;17.95;11.27;;;;;;;;;;5033271;28;20033;-62
2022/10/06 14:02:35;;;;;;;17.50;10.90;;;;;;;;;;5033227;28;20084;-61
2022/10/06 14:05:20;;;;;;;19.92;12.30;;;;;;;;;;5032946;28;20512;-61
2022/10/06 14:07:46;;;;;;;17.08;11.07;;;;;;;;;;5015596;28;20025;-60
2022/10/06 14:10:20;;;;;;;16.88;11.27;;;;;;;;;;5036562;28;20037;-61
2022/10/06 14:12:46;;;;;;;18.45;11.40;;;;;;;;;;5038327;28;20018;-61
2022/10/06 14:15:20;;;;;;;17.35;11.18;;;;;;;;;;5036028;28;20465;-61
2022/10/06 14:17:52;;;;;;;18.77;11.10;;;;;;;;;;5052399;28;20041;-60
2022/10/06 14:20:47;;;;;;;17.85;10.20;;;;;;;;;;5035188;28;20025;-61
2022/10/06 14:23:32;;;;;;;17.40;11.27;;;;;;;;;;5031749;28;20045;-59
2022/10/06 14:25:58;;;;;;;18.80;10.90;;;;;;;;;;5052810;28;20111;-61
2022/10/06 14:28:24;;;;;;;19.15;10.60;;;;;;;;;;5051371;28;20154;-61
2022/10/06 14:30:50;;;;;;;17.55;10.15;;;;;;;;;;5052569;28;20025;-61
2022/10/06 14:33:16;;;;;;;17.50;10.52;;;;;;;;;;5052168;28;20049;-61
2022/10/06 14:35:42;;;;;;;19.67;10.60;;;;;;;;;;5052120;28;20033;-62
2022/10/06 14:38:09;;;;;;;19.45;10.70;;;;;;;;;;5052353;28;20029;-62
2022/10/06 14:40:39;;;;;;;20.10;10.57;;;;;;;;;;5052458;28;20049;-62
2022/10/06 14:43:05;;;;;;;20.38;11.10;;;;;;;;;;5034232;28;20049;-61
2022/10/06 14:45:32;;;;;;;17.40;10.50;;;;;;;;;;5053146;28;20748;-62
2022/10/06 14:47:58;;;;;;;19.58;10.93;;;;;;;;;;5050414;28;20029;-62